Terminal Aerodrome Forecast
Issued by NWS

Home | Current Version | Previous Version | Text Only | Print | Product List | Glossary On
Versions: 1 2 3 4 5 6 7 8 9 10 11 12 13 14 15 16
000
FTAK31 PAJN 190500
TAFAJN
TAF
PAJN 190521Z 1906/2006 10009KT 6SM -RA SCT015 BKN035 OVC060
     FM190900 11012G20KT 6SM -RA BR BKN020 OVC040
     FM191600 11015G22KT 4SM RA BR BKN020 OVC035
     FM200300 11010G18KT 6SM -RA BR SCT015 OVC025=

USA.gov is the U.S. government's official web portal to all federal, state and local government web resources and services.